Time;durP1;ratioP1;P1;durP2;ratioP2;P2;SDS_P1;SDS_P2;PMS_P1;PMS_P2;Temp;Humidity;BMP_temperature;BMP_pressure;BME280_temperature;BME280_humidity;BME280_pressure;Samples;Min_cycle;Max_cycle;Signal;HPM_P1;HPM_P2
2023/11/14 00:00:06;;;;;;;0.60;0.60;;;0.10;99.90;;;;;;5048541;28;20204;-72
2023/11/14 00:02:32;;;;;;;0.63;0.63;;;0.10;99.90;;;;;;5047279;28;20193;-72
2023/11/14 00:04:58;;;;;;;0.50;0.50;;;0.10;99.90;;;;;;5048335;28;20719;-72
2023/11/14 00:07:24;;;;;;;0.70;0.70;;;0.10;99.90;;;;;;5068363;28;20284;-72
2023/11/14 00:09:50;;;;;;;0.70;0.70;;;0.20;99.90;;;;;;5068715;28;20208;-71
2023/11/14 00:12:17;;;;;;;0.70;0.70;;;0.20;99.90;;;;;;5070014;28;20181;-72
2023/11/14 00:14:44;;;;;;;0.70;0.70;;;0.20;99.90;;;;;;5072700;28;20188;-71
2023/11/14 00:17:11;;;;;;;0.90;0.90;;;0.20;99.90;;;;;;5072825;28;20252;-72
2023/11/14 00:19:38;;;;;;;0.60;0.60;;;0.30;99.90;;;;;;5072481;28;20189;-72
2023/11/14 00:22:04;;;;;;;0.60;0.60;;;0.20;99.90;;;;;;5072486;28;20238;-69
2023/11/14 00:24:29;;;;;;;0.68;0.68;;;0.30;99.90;;;;;;5070887;28;20204;-69
2023/11/14 00:26:58;;;;;;;0.57;0.57;;;0.30;99.90;;;;;;5072586;28;20696;-70
2023/11/14 00:29:23;;;;;;;0.70;0.70;;;0.30;99.90;;;;;;5072248;28;20193;-68
2023/11/14 00:31:49;;;;;;;0.77;0.77;;;0.30;99.90;;;;;;5072105;28;20223;-69
2023/11/14 00:34:14;;;;;;;0.60;0.60;;;0.40;99.90;;;;;;5072284;28;20283;-69
2023/11/14 00:36:41;;;;;;;0.60;0.60;;;0.40;99.90;;;;;;5071904;28;20208;-70
2023/11/14 00:39:09;;;;;;;0.60;0.60;;;0.40;99.90;;;;;;5072206;28;20702;-70
2023/11/14 00:41:35;;;;;;;0.60;0.60;;;0.40;99.90;;;;;;5072139;28;20211;-68
2023/11/14 00:44:02;;;;;;;0.70;0.70;;;0.40;99.90;;;;;;5072151;28;20189;-69
2023/11/14 00:46:28;;;;;;;0.70;0.70;;;0.40;99.90;;;;;;5071905;28;20196;-70
2023/11/14 00:48:54;;;;;;;0.60;0.60;;;0.40;99.90;;;;;;5072195;28;20563;-69
2023/11/14 00:51:19;;;;;;;0.70;0.70;;;0.40;99.90;;;;;;5071754;28;20258;-69
2023/11/14 00:53:45;;;;;;;0.68;0.68;;;0.40;99.90;;;;;;5072242;28;20201;-68
2023/11/14 00:56:11;;;;;;;0.68;0.68;;;0.40;99.90;;;;;;5071785;28;20193;-69
2023/11/14 00:58:38;;;;;;;0.70;0.70;;;0.50;99.90;;;;;;5070252;28;20200;-69
2023/11/14 01:01:04;;;;;;;0.60;0.60;;;0.40;99.90;;;;;;5071964;28;20683;-69
2023/11/14 01:03:30;;;;;;;0.70;0.70;;;0.40;99.90;;;;;;5071489;28;20205;-69
2023/11/14 01:05:55;;;;;;;0.60;0.60;;;0.50;99.90;;;;;;5071660;28;20774;-68
2023/11/14 01:08:21;;;;;;;0.65;0.65;;;0.50;99.90;;;;;;5071493;28;20208;-69
2023/11/14 01:10:47;;;;;;;0.60;0.60;;;0.50;99.90;;;;;;5071627;28;20219;-70
2023/11/14 01:13:13;;;;;;;0.70;0.70;;;0.50;99.90;;;;;;5071708;28;20268;-68
2023/11/14 01:15:40;;;;;;;0.50;0.50;;;0.50;99.90;;;;;;5071453;28;20654;-71
2023/11/14 01:18:06;;;;;;;0.70;0.70;;;0.50;99.90;;;;;;5071481;28;20659;-69
2023/11/14 01:20:32;;;;;;;0.65;0.65;;;0.50;99.90;;;;;;5071205;28;20208;-68
2023/11/14 01:22:57;;;;;;;0.70;0.70;;;0.50;99.90;;;;;;5070664;28;20201;-68
2023/11/14 01:25:23;;;;;;;0.70;0.70;;;0.50;99.90;;;;;;5071044;28;20561;-69
2023/11/14 01:27:49;;;;;;;0.60;0.60;;;0.50;99.90;;;;;;5071277;28;20197;-69
2023/11/14 01:30:15;;;;;;;0.70;0.70;;;0.50;99.90;;;;;;5071174;28;20292;-70
2023/11/14 01:32:41;;;;;;;0.60;0.60;;;0.50;99.90;;;;;;5071050;28;20645;-71
2023/11/14 01:35:07;;;;;;;0.70;0.70;;;0.60;99.90;;;;;;5069773;28;20245;-71
2023/11/14 01:37:33;;;;;;;0.80;0.80;;;0.60;99.90;;;;;;5071248;28;20196;-71
2023/11/14 01:39:59;;;;;;;0.52;0.52;;;0.60;99.90;;;;;;5071291;28;20197;-71
2023/11/14 01:42:24;;;;;;;0.70;0.70;;;0.60;99.90;;;;;;5070992;28;20590;-71
2023/11/14 01:44:50;;;;;;;0.57;0.57;;;0.60;99.90;;;;;;5071191;28;20235;-71
2023/11/14 01:47:16;;;;;;;0.70;0.70;;;0.60;99.90;;;;;;5070849;28;20209;-71
2023/11/14 01:49:43;;;;;;;0.70;0.70;;;0.60;99.90;;;;;;5070892;28;20657;-71
2023/11/14 01:52:10;;;;;;;0.52;0.52;;;0.60;99.90;;;;;;5053733;28;20289;-71
2023/11/14 01:54:37;;;;;;;0.80;0.80;;;0.60;99.90;;;;;;5050714;28;20205;-71
2023/11/14 01:57:04;;;;;;;0.65;0.65;;;0.60;99.90;;;;;;5050628;28;20730;-71
2023/11/14 01:59:30;;;;;;;0.50;0.50;;;0.60;99.90;;;;;;5064958;28;20236;-71
2023/11/14 02:01:57;;;;;;;0.60;0.60;;;0.60;99.90;;;;;;5070500;28;20193;-71
2023/11/14 02:04:26;;;;;;;0.60;0.60;;;0.70;99.90;;;;;;5070288;28;20227;-71
2023/11/14 02:06:51;;;;;;;0.60;0.60;;;0.70;99.90;;;;;;5070212;28;20196;-71
2023/11/14 02:09:17;;;;;;;0.60;0.60;;;0.70;99.90;;;;;;5070153;28;20282;-71
2023/11/14 02:11:44;;;;;;;0.57;0.57;;;0.70;99.90;;;;;;5070027;28;20208;-71
2023/11/14 02:14:13;;;;;;;0.65;0.65;;;0.70;99.90;;;;;;5070096;28;20469;-71
2023/11/14 02:16:50;;;;;;;0.70;0.70;;;0.70;99.90;;;;;;5069767;28;20195;-71
2023/11/14 02:19:16;;;;;;;0.60;0.60;;;0.70;99.90;;;;;;5051113;28;20209;-71
2023/11/14 02:21:42;;;;;;;0.70;0.70;;;0.70;99.90;;;;;;5050149;28;20645;-71
2023/11/14 02:24:19;;;;;;;0.63;0.63;;;0.70;99.90;;;;;;5050212;28;20243;-72
2023/11/14 02:26:46;;;;;;;0.77;0.77;;;0.60;99.90;;;;;;5069981;28;20200;-71
2023/11/14 02:29:32;;;;;;;0.63;0.63;;;0.70;99.90;;;;;;5069822;28;20188;-71
2023/11/14 02:31:58;;;;;;;0.60;0.60;;;0.70;99.90;;;;;;5069886;28;20209;-71
2023/11/14 02:34:24;;;;;;;0.70;0.70;;;0.70;99.90;;;;;;5069078;28;20744;-71
2023/11/14 02:36:49;;;;;;;0.60;0.60;;;0.70;99.90;;;;;;5069947;28;20272;-71
2023/11/14 02:39:15;;;;;;;1.45;1.05;;;0.70;99.90;;;;;;5069875;28;20188;-71
2023/11/14 02:41:41;;;;;;;0.60;0.60;;;0.70;99.90;;;;;;5069999;28;20271;-71
2023/11/14 02:44:07;;;;;;;0.52;0.52;;;0.70;99.90;;;;;;5070170;28;20652;-72
2023/11/14 02:46:32;;;;;;;0.60;0.60;;;0.70;99.90;;;;;;5068018;28;20267;-71
2023/11/14 02:49:17;;;;;;;0.57;0.57;;;0.70;99.90;;;;;;5050010;28;20213;-71
2023/11/14 02:51:42;;;;;;;0.65;0.65;;;0.70;99.90;;;;;;5049575;28;20233;-72
2023/11/14 02:54:09;;;;;;;0.70;0.70;;;0.70;99.90;;;;;;5051230;28;20185;-71
2023/11/14 02:56:34;;;;;;;0.60;0.60;;;0.80;99.90;;;;;;5069667;28;20200;-71
2023/11/14 02:59:00;;;;;;;0.63;0.63;;;0.80;99.90;;;;;;5069598;28;20285;-72
2023/11/14 03:01:26;;;;;;;0.70;0.70;;;0.80;99.90;;;;;;5069476;28;20232;-71
2023/11/14 03:03:52;;;;;;;0.70;0.70;;;0.80;99.90;;;;;;5069602;28;20246;-71
2023/11/14 03:06:18;;;;;;;0.60;0.60;;;0.80;99.90;;;;;;5069098;28;20598;-71
2023/11/14 03:08:43;;;;;;;0.70;0.70;;;0.80;99.90;;;;;;5069591;28;20258;-71
2023/11/14 03:11:09;;;;;;;0.52;0.52;;;0.80;99.90;;;;;;5069495;28;20246;-70
2023/11/14 03:13:35;;;;;;;0.50;0.50;;;0.80;99.90;;;;;;5066051;28;20193;-70
2023/11/14 03:16:00;;;;;;;0.70;0.70;;;0.80;99.90;;;;;;5049230;28;20197;-70
2023/11/14 03:18:26;;;;;;;0.70;0.70;;;0.80;99.90;;;;;;5048973;28;20205;-71
2023/11/14 03:20:52;;;;;;;0.63;0.63;;;0.80;99.90;;;;;;5053515;28;20284;-70
2023/11/14 03:23:17;;;;;;;0.60;0.60;;;0.80;99.90;;;;;;5069318;28;20197;-70
2023/11/14 03:25:43;;;;;;;0.70;0.70;;;0.80;99.90;;;;;;5067852;28;20240;-71
2023/11/14 03:28:08;;;;;;;0.50;0.50;;;0.80;99.90;;;;;;5069097;28;20224;-71
2023/11/14 03:30:34;;;;;;;0.60;0.60;;;0.80;99.90;;;;;;5068893;28;20234;-71
2023/11/14 03:33:00;;;;;;;0.60;0.60;;;0.80;99.90;;;;;;5069303;28;20619;-70
2023/11/14 03:35:27;;;;;;;0.60;0.60;;;0.80;99.90;;;;;;5068834;28;20279;-71
2023/11/14 03:37:52;;;;;;;0.50;0.50;;;0.80;99.90;;;;;;5067576;28;20227;-70
2023/11/14 03:40:18;;;;;;;0.52;0.52;;;0.80;99.90;;;;;;5068800;28;20300;-70
2023/11/14 03:42:44;;;;;;;0.57;0.57;;;0.80;99.90;;;;;;5068718;28;20215;-71
2023/11/14 03:45:09;;;;;;;0.70;0.70;;;0.80;99.90;;;;;;5068802;28;20280;-70
2023/11/14 03:47:35;;;;;;;0.60;0.60;;;0.80;99.90;;;;;;5067071;28;20208;-71
2023/11/14 03:50:03;;;;;;;0.70;0.70;;;0.80;99.90;;;;;;5067344;28;20243;-70
2023/11/14 03:52:29;;;;;;;0.60;0.60;;;0.80;99.90;;;;;;5068590;28;20287;-71
2023/11/14 03:54:55;;;;;;;0.50;0.50;;;0.80;99.90;;;;;;5069008;28;20197;-71
2023/11/14 03:57:21;;;;;;;0.60;0.60;;;0.80;99.90;;;;;;5068736;28;20200;-70
2023/11/14 03:59:47;;;;;;;0.60;0.60;;;0.80;99.90;;;;;;5068952;28;20742;-71
2023/11/14 04:02:13;;;;;;;0.65;0.65;;;0.80;99.90;;;;;;5058868;28;20204;-70
2023/11/14 04:04:39;;;;;;;0.60;0.60;;;0.80;99.90;;;;;;5065965;28;20220;-70
2023/11/14 04:07:05;;;;;;;0.70;0.70;;;0.80;99.90;;;;;;5068553;28;20211;-71
2023/11/14 04:09:31;;;;;;;0.70;0.70;;;0.80;99.90;;;;;;5068084;28;20682;-70
2023/11/14 04:11:56;;;;;;;0.70;0.70;;;0.80;99.90;;;;;;5048683;28;20209;-70
2023/11/14 04:14:24;;;;;;;0.57;0.57;;;0.80;99.90;;;;;;5048601;28;20189;-70
2023/11/14 04:16:50;;;;;;;0.70;0.70;;;0.80;99.90;;;;;;5050267;28;20194;-71
2023/11/14 04:19:15;;;;;;;0.60;0.60;;;0.80;99.90;;;;;;5068780;28;20201;-71
2023/11/14 04:21:41;;;;;;;0.70;0.70;;;0.80;99.90;;;;;;5068464;28;20258;-71
2023/11/14 04:24:08;;;;;;;0.75;0.75;;;0.80;99.90;;;;;;5068871;28;20276;-71
2023/11/14 04:26:34;;;;;;;0.77;0.77;;;0.80;99.90;;;;;;5068595;28;20201;-71
2023/11/14 04:29:00;;;;;;;0.68;0.68;;;0.80;99.90;;;;;;5067176;28;20200;-71
2023/11/14 04:31:26;;;;;;;0.70;0.70;;;0.80;99.90;;;;;;5068497;28;20729;-71
2023/11/14 04:33:52;;;;;;;0.70;0.70;;;0.80;99.90;;;;;;5068513;28;20193;-71
2023/11/14 04:36:19;;;;;;;0.60;0.60;;;0.80;99.90;;;;;;5068544;28;20272;-71
2023/11/14 04:38:45;;;;;;;0.60;0.60;;;0.80;99.90;;;;;;5067143;28;20741;-71
2023/11/14 04:41:14;;;;;;;0.70;0.70;;;0.80;99.90;;;;;;5048944;28;20205;-71
2023/11/14 04:43:40;;;;;;;0.55;0.55;;;0.80;99.90;;;;;;5048339;28;20202;-71
2023/11/14 04:46:06;;;;;;;0.60;0.60;;;0.80;99.90;;;;;;5048445;28;20194;-71
2023/11/14 04:48:31;;;;;;;0.77;0.77;;;0.70;99.90;;;;;;5064999;28;20208;-71
2023/11/14 04:50:57;;;;;;;0.60;0.60;;;0.80;99.90;;;;;;5068020;28;20560;-71
2023/11/14 04:53:23;;;;;;;0.70;0.70;;;0.70;99.90;;;;;;5068018;28;20216;-72
2023/11/14 04:55:50;;;;;;;0.70;0.70;;;0.70;99.90;;;;;;5068140;28;20620;-71
2023/11/14 04:58:16;;;;;;;0.60;0.60;;;0.70;99.90;;;;;;5069354;28;20192;-71
2023/11/14 05:00:41;;;;;;;0.50;0.50;;;0.70;99.90;;;;;;5071826;28;20205;-72
2023/11/14 05:03:07;;;;;;;0.55;0.55;;;0.70;99.90;;;;;;5071833;28;20257;-71
2023/11/14 05:05:33;;;;;;;0.60;0.60;;;0.70;99.90;;;;;;5071328;28;20227;-72
2023/11/14 05:07:58;;;;;;;0.63;0.63;;;0.70;99.90;;;;;;5052964;28;20284;-71
2023/11/14 05:10:24;;;;;;;0.50;0.50;;;0.70;99.90;;;;;;5051368;28;20216;-71
2023/11/14 05:12:50;;;;;;;0.60;0.60;;;0.70;99.90;;;;;;5051675;28;20201;-71
2023/11/14 05:15:16;;;;;;;0.60;0.60;;;0.70;99.90;;;;;;5071224;28;20679;-71
2023/11/14 05:17:42;;;;;;;0.70;0.70;;;0.70;99.90;;;;;;5071489;28;20191;-72
2023/11/14 05:20:09;;;;;;;0.70;0.70;;;0.60;99.90;;;;;;5071639;28;20547;-72
2023/11/14 05:22:35;;;;;;;0.60;0.60;;;0.60;99.90;;;;;;5070256;28;20778;-72
2023/11/14 05:25:01;;;;;;;0.70;0.70;;;0.60;99.90;;;;;;5071479;28;20200;-71
2023/11/14 05:27:26;;;;;;;0.55;0.55;;;0.70;99.90;;;;;;5071206;28;20197;-72
2023/11/14 05:29:52;;;;;;;0.60;0.60;;;0.60;99.90;;;;;;5071373;28;20212;-72
2023/11/14 05:32:18;;;;;;;0.70;0.70;;;0.60;99.90;;;;;;5071203;28;20258;-72
2023/11/14 05:34:44;;;;;;;0.77;0.77;;;0.60;99.90;;;;;;5071136;28;20228;-72
2023/11/14 05:37:10;;;;;;;0.50;0.50;;;0.60;99.90;;;;;;5070794;28;20193;-72
2023/11/14 05:39:35;;;;;;;0.50;0.50;;;0.60;99.90;;;;;;5070836;28;20189;-72
2023/11/14 05:42:02;;;;;;;0.50;0.50;;;0.60;99.90;;;;;;5070912;28;20254;-72
2023/11/14 05:44:29;;;;;;;0.60;0.60;;;0.60;99.90;;;;;;5070742;28;20668;-72
2023/11/14 05:46:55;;;;;;;0.70;0.70;;;0.60;99.90;;;;;;5070999;28;20224;-72
2023/11/14 05:49:21;;;;;;;0.60;0.60;;;0.60;99.90;;;;;;5070758;28;20231;-72
2023/11/14 05:51:46;;;;;;;0.77;0.77;;;0.60;99.90;;;;;;5070504;28;21026;-72
2023/11/14 05:54:12;;;;;;;0.68;0.68;;;0.70;99.90;;;;;;5070887;28;20677;-71
2023/11/14 05:56:38;;;;;;;0.77;0.77;;;0.70;99.90;;;;;;5070623;28;20458;-72
2023/11/14 05:59:04;;;;;;;0.60;0.60;;;0.70;99.90;;;;;;5070631;28;20200;-72
2023/11/14 06:01:30;;;;;;;0.55;0.55;;;0.60;99.90;;;;;;5070457;28;20309;-72
2023/11/14 06:03:56;;;;;;;0.65;0.65;;;0.60;99.90;;;;;;5054177;28;20244;-72
2023/11/14 06:06:21;;;;;;;0.60;0.60;;;0.60;99.90;;;;;;5060281;28;20304;-72
2023/11/14 06:08:47;;;;;;;0.68;0.68;;;0.60;99.90;;;;;;5070670;28;20208;-72
2023/11/14 06:11:13;;;;;;;0.60;0.60;;;0.60;99.90;;;;;;5070460;28;20299;-71
2023/11/14 06:13:38;;;;;;;0.60;0.60;;;0.60;99.90;;;;;;5070246;28;20192;-69
2023/11/14 06:16:05;;;;;;;0.60;0.60;;;0.60;99.90;;;;;;5070475;28;20189;-69
2023/11/14 06:18:30;;;;;;;0.70;0.70;;;0.60;99.90;;;;;;5070408;28;20192;-69
2023/11/14 06:21:00;;;;;;;0.60;0.60;;;0.60;99.90;;;;;;5070519;28;20291;-68
2023/11/14 06:23:25;;;;;;;0.55;0.55;;;0.60;99.90;;;;;;5070244;28;20192;-69
2023/11/14 06:25:52;;;;;;;0.77;0.77;;;0.60;99.90;;;;;;5070343;28;20254;-70
2023/11/14 06:28:18;;;;;;;0.50;0.50;;;0.60;99.90;;;;;;5070245;28;20197;-70
2023/11/14 06:30:44;;;;;;;0.70;0.70;;;0.60;99.90;;;;;;5070135;28;20250;-70
2023/11/14 06:33:09;;;;;;;0.50;0.50;;;0.60;99.90;;;;;;5053787;28;20198;-69
2023/11/14 06:35:36;;;;;;;0.63;0.63;;;0.60;99.90;;;;;;5065490;28;20660;-69
2023/11/14 06:38:02;;;;;;;0.70;0.70;;;0.60;99.90;;;;;;5050048;28;20289;-69
2023/11/14 06:40:28;;;;;;;0.85;0.85;;;0.60;99.90;;;;;;5062216;28;20205;-71
2023/11/14 06:42:53;;;;;;;1.65;1.48;;;0.60;99.90;;;;;;5070062;28;20223;-71
2023/11/14 06:45:20;;;;;;;1.95;1.83;;;0.60;99.90;;;;;;5069961;28;20280;-71
2023/11/14 06:47:45;;;;;;;0.70;0.70;;;0.60;99.90;;;;;;5070476;28;20201;-70
2023/11/14 06:50:11;;;;;;;0.70;0.70;;;0.70;99.90;;;;;;5067886;28;20810;-71
2023/11/14 06:52:37;;;;;;;0.85;0.85;;;0.70;99.90;;;;;;5049328;28;20598;-71
2023/11/14 06:55:03;;;;;;;0.65;0.65;;;0.70;99.90;;;;;;5049946;28;20574;-71
2023/11/14 06:57:31;;;;;;;0.50;0.50;;;0.70;99.90;;;;;;5049832;28;20189;-71
2023/11/14 06:59:58;;;;;;;0.60;0.60;;;0.70;99.90;;;;;;5063482;28;20188;-71
2023/11/14 07:02:23;;;;;;;0.90;0.90;;;0.70;99.90;;;;;;5069586;28;20197;-71
2023/11/14 07:04:49;;;;;;;0.80;0.80;;;0.70;99.90;;;;;;5068348;28;20201;-71
2023/11/14 07:07:15;;;;;;;0.77;0.77;;;0.70;99.90;;;;;;5068978;28;20202;-71
2023/11/14 07:09:41;;;;;;;0.47;0.47;;;0.70;99.90;;;;;;5069992;28;20262;-71
2023/11/14 07:12:07;;;;;;;0.90;0.90;;;0.70;99.90;;;;;;5069507;28;20765;-71
2023/11/14 07:14:34;;;;;;;0.77;0.77;;;0.70;99.90;;;;;;5069539;28;20276;-71
2023/11/14 07:16:59;;;;;;;0.70;0.70;;;0.70;99.90;;;;;;5069437;28;20246;-71
2023/11/14 07:19:25;;;;;;;1.05;0.98;;;0.70;99.90;;;;;;5069211;28;20502;-71
2023/11/14 07:21:50;;;;;;;0.77;0.77;;;0.80;99.90;;;;;;5068830;28;20211;-70
2023/11/14 07:24:16;;;;;;;0.70;0.70;;;0.80;99.90;;;;;;5069619;28;20276;-70
2023/11/14 07:26:44;;;;;;;0.80;0.80;;;0.80;99.90;;;;;;5067922;28;20203;-70
2023/11/14 07:29:11;;;;;;;1.73;1.33;;;0.80;99.90;;;;;;5069352;28;20888;-70
2023/11/14 07:31:36;;;;;;;0.77;0.77;;;0.80;99.90;;;;;;5067808;28;20208;-70
2023/11/14 07:34:03;;;;;;;2.75;1.25;;;0.80;99.90;;;;;;5067835;28;20197;-70
2023/11/14 07:36:28;;;;;;;2.30;2.10;;;0.80;99.90;;;;;;5068917;28;20200;-70
2023/11/14 07:38:54;;;;;;;0.63;0.63;;;0.80;99.90;;;;;;5067958;28;20215;-70
2023/11/14 07:41:20;;;;;;;0.70;0.70;;;0.90;99.90;;;;;;5069060;28;20699;-70
2023/11/14 07:43:46;;;;;;;1.05;1.00;;;0.90;99.90;;;;;;5069282;28;20291;-70
2023/11/14 07:46:11;;;;;;;1.98;1.42;;;0.90;99.90;;;;;;5067804;28;20204;-70
2023/11/14 07:48:38;;;;;;;0.80;0.80;;;0.90;99.90;;;;;;5067544;28;20291;-70
2023/11/14 07:51:04;;;;;;;0.73;0.73;;;0.80;99.90;;;;;;5067647;28;20240;-72
2023/11/14 07:53:30;;;;;;;0.95;0.95;;;0.90;99.90;;;;;;5069217;28;20255;-72
2023/11/14 07:55:55;;;;;;;0.80;0.80;;;0.90;99.90;;;;;;5057123;28;20668;-72
2023/11/14 07:58:25;;;;;;;1.23;1.17;;;0.90;99.90;;;;;;5048812;28;20222;-72
2023/11/14 08:00:51;;;;;;;0.90;0.90;;;0.90;99.90;;;;;;5049038;28;20727;-72
2023/11/14 08:03:17;;;;;;;0.88;0.88;;;0.90;99.90;;;;;;5061259;28;20225;-71
2023/11/14 08:05:42;;;;;;;1.77;1.40;;;0.90;99.90;;;;;;5066992;28;20227;-72
2023/11/14 08:08:09;;;;;;;0.70;0.70;;;0.90;99.90;;;;;;5068944;28;20668;-72
2023/11/14 08:10:36;;;;;;;0.80;0.80;;;0.90;99.90;;;;;;5067380;28;20759;-72
2023/11/14 08:13:01;;;;;;;0.60;0.60;;;0.90;99.90;;;;;;5068819;28;20676;-72
2023/11/14 08:15:27;;;;;;;0.80;0.80;;;1.00;99.90;;;;;;5068677;28;20291;-72
2023/11/14 08:17:54;;;;;;;0.90;0.90;;;1.00;99.90;;;;;;5068579;28;20246;-72
2023/11/14 08:20:20;;;;;;;0.65;0.65;;;1.00;99.90;;;;;;5068509;28;20185;-72
2023/11/14 08:22:45;;;;;;;0.63;0.63;;;1.00;99.90;;;;;;5068629;28;20197;-72
2023/11/14 08:25:11;;;;;;;0.63;0.63;;;1.00;99.90;;;;;;5057267;28;20693;-72
2023/11/14 08:27:38;;;;;;;0.70;0.70;;;0.90;99.90;;;;;;5048431;28;20235;-72
2023/11/14 08:30:08;;;;;;;0.80;0.80;;;1.00;99.90;;;;;;5048699;28;20201;-72
2023/11/14 08:32:33;;;;;;;0.80;0.80;;;1.00;99.90;;;;;;5057328;28;20209;-72
2023/11/14 08:35:00;;;;;;;0.70;0.70;;;0.90;99.90;;;;;;5072463;28;20219;-72
2023/11/14 08:37:26;;;;;;;0.65;0.65;;;1.00;99.90;;;;;;5072271;28;20655;-72
2023/11/14 08:39:52;;;;;;;0.63;0.63;;;1.00;99.90;;;;;;5072436;28;20192;-72
2023/11/14 08:42:17;;;;;;;0.70;0.70;;;1.10;99.90;;;;;;5072284;28;20200;-72
2023/11/14 08:44:43;;;;;;;0.60;0.60;;;1.10;99.90;;;;;;5072099;28;20197;-72
2023/11/14 08:47:09;;;;;;;0.70;0.70;;;1.10;99.90;;;;;;5072549;28;20660;-72
2023/11/14 08:49:34;;;;;;;0.60;0.60;;;1.10;99.90;;;;;;5072076;28;20656;-72
2023/11/14 08:52:00;;;;;;;0.82;0.82;;;1.10;99.90;;;;;;5061647;28;20704;-71
2023/11/14 08:54:27;;;;;;;0.57;0.57;;;1.00;99.90;;;;;;5051056;28;20208;-72
2023/11/14 08:56:53;;;;;;;0.60;0.60;;;1.10;99.90;;;;;;5050787;28;20205;-72
2023/11/14 08:59:19;;;;;;;0.50;0.50;;;1.10;99.90;;;;;;5063833;28;20189;-72
2023/11/14 09:01:46;;;;;;;0.70;0.70;;;1.10;99.90;;;;;;5071944;28;20246;-71
2023/11/14 09:04:12;;;;;;;0.65;0.65;;;1.10;99.90;;;;;;5072062;28;20596;-70
2023/11/14 09:06:38;;;;;;;0.90;0.90;;;1.10;99.90;;;;;;5071532;28;20192;-71
2023/11/14 09:09:03;;;;;;;2.35;1.85;;;1.10;99.90;;;;;;5072128;28;20207;-71
2023/11/14 09:11:29;;;;;;;0.60;0.60;;;1.20;99.90;;;;;;5071802;28;20856;-71
2023/11/14 09:13:59;;;;;;;0.60;0.60;;;1.20;99.90;;;;;;5072019;28;20205;-71
2023/11/14 09:16:25;;;;;;;0.60;0.60;;;1.20;99.90;;;;;;5071481;28;20197;-71
2023/11/14 09:18:51;;;;;;;0.60;0.60;;;1.20;99.90;;;;;;5071778;28;20232;-72
2023/11/14 09:21:17;;;;;;;0.70;0.70;;;1.20;99.90;;;;;;5060194;28;20259;-71
2023/11/14 09:23:43;;;;;;;0.75;0.75;;;1.20;99.90;;;;;;5051669;28;20197;-71
2023/11/14 09:26:10;;;;;;;0.80;0.80;;;1.20;99.90;;;;;;5051743;28;20209;-72
2023/11/14 09:28:36;;;;;;;0.70;0.70;;;1.20;99.90;;;;;;5056786;28;20299;-71
2023/11/14 09:31:04;;;;;;;0.77;0.77;;;1.20;99.90;;;;;;5071517;28;20220;-71
2023/11/14 09:33:32;;;;;;;0.70;0.70;;;1.20;99.90;;;;;;5071142;28;20193;-71
2023/11/14 09:35:58;;;;;;;0.80;0.80;;;1.20;99.90;;;;;;5071295;28;20265;-71
2023/11/14 09:38:24;;;;;;;0.68;0.68;;;1.20;99.90;;;;;;5071122;28;20185;-71
2023/11/14 09:40:50;;;;;;;0.70;0.70;;;1.20;99.90;;;;;;5071081;28;20251;-71
2023/11/14 09:43:23;;;;;;;3.65;1.52;;;1.20;99.90;;;;;;5071144;28;20249;-71
2023/11/14 09:45:50;;;;;;;0.68;0.68;;;1.30;99.90;;;;;;5071172;28;20212;-71
2023/11/14 09:48:18;;;;;;;0.88;0.88;;;1.30;99.90;;;;;;5071037;28;20618;-71
2023/11/14 09:50:45;;;;;;;0.60;0.60;;;1.20;99.90;;;;;;5070987;28;20225;-71
2023/11/14 09:53:12;;;;;;;0.60;0.60;;;1.20;99.90;;;;;;5071005;28;20229;-71
2023/11/14 09:55:39;;;;;;;0.70;0.70;;;1.30;99.90;;;;;;5056831;28;20212;-71
2023/11/14 09:58:08;;;;;;;0.70;0.70;;;1.30;99.90;;;;;;5050763;28;20198;-71
2023/11/14 10:00:34;;;;;;;0.63;0.63;;;1.30;99.90;;;;;;5050875;28;20190;-71
2023/11/14 10:03:02;;;;;;;0.73;0.73;;;1.30;99.90;;;;;;5050915;28;20251;-71
2023/11/14 10:05:32;;;;;;;1.58;1.48;;;1.30;99.90;;;;;;5054635;28;20562;-70
2023/11/14 10:07:59;;;;;;;0.52;0.52;;;1.30;99.90;;;;;;5070807;28;20199;-71
2023/11/14 10:10:25;;;;;;;1.42;1.33;;;1.30;99.90;;;;;;5070402;28;20193;-72
2023/11/14 10:12:51;;;;;;;3.05;2.75;;;1.30;99.90;;;;;;5070813;28;20560;-69
2023/11/14 10:15:30;;;;;;;1.58;1.48;;;1.30;99.90;;;;;;5070909;28;20199;-70
2023/11/14 10:17:57;;;;;;;0.65;0.65;;;1.30;99.90;;;;;;5057395;28;20544;-69
2023/11/14 10:20:24;;;;;;;0.80;0.80;;;1.30;99.90;;;;;;5050503;28;20193;-69
2023/11/14 10:22:54;;;;;;;0.60;0.60;;;1.20;99.90;;;;;;5050687;28;20186;-69
2023/11/14 10:25:31;;;;;;;0.70;0.70;;;1.30;99.90;;;;;;5061402;28;20735;-70
2023/11/14 10:28:04;;;;;;;0.77;0.77;;;1.20;99.90;;;;;;5068895;28;20280;-70
2023/11/14 10:30:42;;;;;;;0.60;0.60;;;1.30;99.90;;;;;;5069979;28;20193;-71
2023/11/14 10:33:11;;;;;;;0.70;0.70;;;1.20;99.90;;;;;;5070298;28;20867;-70
2023/11/14 10:35:37;;;;;;;0.60;0.60;;;1.20;99.90;;;;;;5068620;28;20224;-70
2023/11/14 10:38:16;;;;;;;0.65;0.65;;;1.20;99.90;;;;;;5068845;28;20235;-69
2023/11/14 10:40:45;;;;;;;1.02;0.90;;;1.20;99.90;;;;;;5069851;28;20617;-70
2023/11/14 10:43:11;;;;;;;0.60;0.60;;;1.10;99.90;;;;;;5069162;28;20676;-69
2023/11/14 10:45:40;;;;;;;0.60;0.60;;;1.20;99.90;;;;;;5050086;28;20201;-70
2023/11/14 10:48:08;;;;;;;0.60;0.60;;;1.10;99.90;;;;;;5049950;28;20209;-71
2023/11/14 10:50:35;;;;;;;0.60;0.60;;;1.10;99.90;;;;;;5050990;28;20233;-69
2023/11/14 10:53:02;;;;;;;0.50;0.50;;;1.10;99.90;;;;;;5068236;28;20228;-72
2023/11/14 10:55:27;;;;;;;0.52;0.52;;;1.10;99.90;;;;;;5068918;28;20185;-71
2023/11/14 10:57:55;;;;;;;0.55;0.55;;;1.20;99.90;;;;;;5069675;28;20189;-72
2023/11/14 11:00:21;;;;;;;0.70;0.70;;;1.10;99.90;;;;;;5069761;28;20196;-71
2023/11/14 11:02:50;;;;;;;0.50;0.50;;;1.10;99.90;;;;;;5063258;28;20628;-71
2023/11/14 11:05:17;;;;;;;0.70;0.70;;;1.10;99.90;;;;;;5051790;28;20189;-71
2023/11/14 11:07:43;;;;;;;0.63;0.63;;;1.10;99.90;;;;;;5069387;28;20192;-71
2023/11/14 11:10:09;;;;;;;0.70;0.70;;;1.10;99.90;;;;;;5069496;28;20679;-71
2023/11/14 11:12:39;;;;;;;0.80;0.80;;;1.10;99.90;;;;;;5067858;28;20215;-70
2023/11/14 11:15:09;;;;;;;3.13;1.85;;;1.10;99.90;;;;;;5049398;28;20207;-71
2023/11/14 11:17:43;;;;;;;0.77;0.77;;;1.10;99.90;;;;;;5049490;28;20228;-72
2023/11/14 11:20:23;;;;;;;0.60;0.60;;;1.00;99.90;;;;;;5049655;28;20188;-71
2023/11/14 11:23:24;;;;;;;1.40;1.35;;;1.00;99.90;;;;;;5049441;28;20221;-71
2023/11/14 11:26:15;;;;;;;0.88;0.88;;;1.00;99.90;;;;;;5026996;28;20685;-71
2023/11/14 11:28:45;;;;;;;0.65;0.65;;;0.90;99.90;;;;;;5026449;28;20214;-71
2023/11/14 11:31:15;;;;;;;0.70;0.70;;;0.90;99.90;;;;;;5026881;28;20245;-71
2023/11/14 11:33:45;;;;;;;0.80;0.80;;;0.80;99.90;;;;;;5026639;28;20206;-71
2023/11/14 11:36:26;;;;;;;0.77;0.77;;;0.80;99.90;;;;;;5026963;28;20198;-71
2023/11/14 11:38:57;;;;;;;0.90;0.90;;;0.90;99.90;;;;;;5026862;28;20289;-71
2023/11/14 11:41:24;;;;;;;0.60;0.60;;;0.80;99.90;;;;;;5025218;28;20209;-71
2023/11/14 11:44:12;;;;;;;0.60;0.60;;;0.70;99.90;;;;;;5046560;28;20202;-71
2023/11/14 11:46:38;;;;;;;0.80;0.80;;;0.70;99.90;;;;;;5046331;28;20255;-71
2023/11/14 11:49:10;;;;;;;0.60;0.60;;;0.60;99.90;;;;;;5026469;28;20204;-71
2023/11/14 11:51:37;;;;;;;0.70;0.70;;;0.60;99.90;;;;;;5025928;28;21071;-72
2023/11/14 11:54:27;;;;;;;0.60;0.60;;;0.60;99.90;;;;;;5026488;28;20339;-72
2023/11/14 11:57:07;;;;;;;0.60;0.60;;;0.60;99.90;;;;;;5026472;28;20670;-72
2023/11/14 11:59:39;;;;;;;0.70;0.70;;;0.60;99.90;;;;;;5022207;28;20542;-71
2023/11/14 12:02:10;;;;;;;0.60;0.60;;;0.50;99.90;;;;;;5048917;28;20605;-70
2023/11/14 12:04:37;;;;;;;0.80;0.80;;;0.50;99.90;;;;;;5048824;28;20660;-70
2023/11/14 12:07:04;;;;;;;0.70;0.70;;;0.50;99.90;;;;;;5067027;28;20667;-70
2023/11/14 12:09:31;;;;;;;0.68;0.68;;;0.50;99.90;;;;;;5072904;28;20196;-71
2023/11/14 12:12:00;;;;;;;0.70;0.70;;;0.50;99.90;;;;;;5072960;28;20226;-71
2023/11/14 12:14:30;;;;;;;0.63;0.63;;;0.40;99.90;;;;;;5071444;28;20319;-70
2023/11/14 12:16:56;;;;;;;0.70;0.70;;;0.40;99.90;;;;;;5071629;28;20548;-70
2023/11/14 12:19:23;;;;;;;0.60;0.60;;;0.40;99.90;;;;;;5072634;28;20196;-69
2023/11/14 12:21:48;;;;;;;0.60;0.60;;;0.40;99.90;;;;;;5071529;28;20209;-70
2023/11/14 12:24:14;;;;;;;0.80;0.80;;;0.40;99.90;;;;;;5072976;28;20242;-70
2023/11/14 12:26:40;;;;;;;0.50;0.50;;;0.40;99.90;;;;;;5071507;28;20204;-70
2023/11/14 12:29:07;;;;;;;1.77;1.25;;;0.40;99.90;;;;;;5072877;28;20245;-71
2023/11/14 12:31:33;;;;;;;0.50;0.50;;;0.40;99.90;;;;;;5072404;28;20201;-70
2023/11/14 12:34:00;;;;;;;0.60;0.60;;;0.50;99.90;;;;;;5071454;28;20201;-69
2023/11/14 12:36:29;;;;;;;0.57;0.57;;;0.40;99.90;;;;;;5072297;28;20207;-70
2023/11/14 12:38:55;;;;;;;0.60;0.60;;;0.40;99.90;;;;;;5072582;28;20184;-70
2023/11/14 12:41:28;;;;;;;0.68;0.68;;;0.40;99.90;;;;;;5070946;28;20210;-70
2023/11/14 12:43:59;;;;;;;0.70;0.70;;;0.40;99.90;;;;;;5072290;28;20208;-71
2023/11/14 12:46:33;;;;;;;0.63;0.63;;;0.50;99.90;;;;;;5072146;28;20279;-71
2023/11/14 12:49:17;;;;;;;0.68;0.68;;;0.50;99.90;;;;;;5072431;28;20686;-70
2023/11/14 12:51:52;;;;;;;0.70;0.70;;;0.50;99.90;;;;;;5071787;28;20224;-70
2023/11/14 12:54:26;;;;;;;0.70;0.70;;;0.50;99.90;;;;;;5070899;28;20196;-70
2023/11/14 12:56:56;;;;;;;0.57;0.57;;;0.50;99.90;;;;;;5072110;28;20193;-70